createdAt,value
2023-01-30T00:02:23.249Z,62.65
2023-01-30T00:04:56.771Z,70.47
2023-01-30T00:07:23.886Z,63.33
2023-01-30T00:09:57.781Z,56.42
2023-01-30T00:12:25.019Z,69.07
2023-01-30T00:14:52.109Z,60.38
2023-01-30T00:17:25.800Z,61.95
2023-01-30T00:19:52.944Z,69.22
2023-01-30T00:22:26.883Z,38.85
2023-01-30T00:24:54.370Z,64.95
2023-01-30T00:30:02.894Z,52.15
2023-01-30T00:32:36.813Z,59.10
2023-01-30T00:35:10.839Z,63.35
2023-01-30T00:37:37.947Z,64.63
2023-01-30T00:40:05.259Z,56.25
2023-01-30T00:42:57.727Z,57.92
2023-01-30T00:45:43.615Z,60.05
2023-01-30T00:48:17.743Z,49.97
2023-01-30T00:50:44.941Z,55.55
2023-01-30T00:53:12.555Z,46.28
2023-01-30T00:58:13.808Z,38.78
2023-01-30T01:00:40.957Z,47.65
2023-01-30T01:03:14.893Z,45.78
2023-01-30T01:05:55.656Z,34.28
2023-01-30T01:08:29.731Z,30.73
2023-01-30T01:10:56.888Z,34.20
2023-01-30T01:13:30.842Z,43.22
2023-01-30T01:15:58.026Z,42.33
2023-01-30T01:18:25.485Z,36.17
2023-01-30T01:20:59.811Z,40.65
2023-01-30T01:23:26.993Z,48.28
2023-01-30T01:26:00.875Z,40.50
2023-01-30T01:28:28.015Z,46.78
2023-01-30T01:31:08.046Z,32.92
2023-01-30T01:33:35.393Z,39.00
2023-01-30T01:36:04.688Z,42.42
2023-01-30T01:38:38.728Z,39.10
2023-01-30T01:41:10.143Z,38.30
2023-01-30T01:43:44.750Z,35.63
2023-01-30T01:46:18.904Z,41.75
2023-01-30T01:48:54.779Z,50.17
2023-01-30T01:51:27.377Z,40.95
2023-01-30T01:54:03.947Z,31.58
2023-01-30T01:56:32.734Z,42.30
2023-01-30T01:59:02.714Z,49.30
2023-01-30T02:01:36.849Z,32.83
2023-01-30T02:04:05.144Z,29.70
2023-01-30T02:06:46.848Z,33.10
2023-01-30T02:09:14.001Z,31.48
2023-01-30T02:12:03.734Z,32.67
2023-01-30T02:14:32.574Z,29.17
2023-01-30T02:17:06.873Z,26.30
2023-01-30T02:19:52.856Z,33.40
2023-01-30T02:22:38.826Z,34.40
2023-01-30T02:25:24.684Z,24.70
2023-01-30T02:28:16.820Z,41.80
2023-01-30T02:31:08.841Z,31.08
2023-01-30T02:33:58.227Z,27.70
2023-01-30T02:36:41.703Z,40.22
2023-01-30T02:39:47.247Z,33.03
2023-01-30T02:42:43.709Z,37.25
2023-01-30T02:45:17.143Z,43.75
2023-01-30T02:48:01.686Z,35.70
2023-01-30T02:50:31.479Z,35.78
2023-01-30T02:53:05.720Z,43.03
2023-01-30T02:55:33.260Z,26.50
2023-01-30T02:58:07.692Z,58.35
2023-01-30T03:01:03.712Z,45.30
2023-01-30T03:03:44.726Z,37.60
2023-01-30T03:06:38.744Z,39.22
2023-01-30T03:09:15.820Z,31.85
2023-01-30T03:11:45.971Z,32.55
2023-01-30T03:14:22.717Z,36.55
2023-01-30T03:16:51.235Z,29.83
2023-01-30T03:19:19.822Z,33.50
2023-01-30T03:21:53.757Z,31.73
2023-01-30T03:24:21.066Z,25.25
2023-01-30T03:26:56.763Z,24.60
2023-01-30T03:29:24.004Z,25.40
2023-01-30T03:31:57.815Z,24.20
2023-01-30T03:34:25.110Z,28.15
2023-01-30T03:36:52.329Z,20.02
2023-01-30T03:39:25.890Z,30.80
2023-01-30T03:41:54.052Z,21.52
2023-01-30T03:44:21.270Z,27.77
2023-01-30T03:46:54.782Z,20.75
2023-01-30T03:49:22.141Z,15.27
2023-01-30T03:51:55.743Z,23.38
2023-01-30T03:54:22.964Z,23.20
2023-01-30T03:56:50.047Z,31.05
2023-01-30T03:59:23.916Z,29.98
2023-01-30T04:01:51.103Z,25.98
2023-01-30T04:04:18.246Z,33.20
2023-01-30T04:06:51.989Z,32.17
2023-01-30T04:09:19.236Z,34.13
2023-01-30T04:11:46.425Z,40.63
2023-01-30T04:14:19.772Z,40.20
2023-01-30T04:16:47.032Z,28.77
2023-01-30T04:19:20.864Z,35.50
2023-01-30T04:21:48.187Z,36.63
2023-01-30T04:24:21.882Z,27.05
2023-01-30T04:26:48.959Z,34.75
2023-01-30T04:29:16.258Z,37.25
2023-01-30T04:31:49.779Z,33.67
2023-01-30T04:34:16.890Z,32.72
2023-01-30T04:36:50.835Z,43.67
2023-01-30T04:39:19.433Z,33.92
2023-01-30T04:41:47.744Z,48.05
2023-01-30T04:44:21.881Z,27.85
2023-01-30T04:46:49.040Z,40.17
2023-01-30T04:49:22.955Z,32.78
2023-01-30T04:51:50.100Z,36.22
2023-01-30T04:54:17.311Z,27.42
2023-01-30T04:56:50.889Z,42.95
2023-01-30T04:59:18.000Z,34.13
2023-01-30T05:01:51.857Z,30.90
2023-01-30T05:04:19.025Z,26.88
2023-01-30T05:07:00.026Z,30.65
2023-01-30T05:09:27.174Z,38.10
2023-01-30T05:11:54.257Z,30.88
2023-01-30T05:14:27.820Z,40.92
2023-01-30T05:16:55.676Z,18.33
2023-01-30T05:19:22.800Z,29.40
2023-01-30T05:21:56.834Z,30.23
2023-01-30T05:24:23.988Z,25.38
2023-01-30T05:26:57.856Z,26.42
2023-01-30T05:29:25.029Z,29.00
2023-01-30T05:31:52.300Z,19.52
2023-01-30T05:34:25.856Z,30.42
2023-01-30T05:36:52.986Z,31.95
2023-01-30T05:39:26.804Z,30.13
2023-01-30T05:41:53.928Z,23.38
2023-01-30T05:44:21.258Z,31.50
2023-01-30T05:46:54.864Z,23.13
2023-01-30T05:49:21.979Z,20.92
2023-01-30T05:51:55.870Z,26.88
2023-01-30T05:54:22.935Z,26.20
2023-01-30T05:56:50.873Z,28.45
2023-01-30T05:59:27.788Z,30.10
2023-01-30T06:01:55.076Z,28.88
2023-01-30T06:04:28.811Z,35.35
2023-01-30T06:07:16.730Z,28.15
2023-01-30T06:09:50.912Z,23.93
2023-01-30T06:12:18.387Z,29.25
2023-01-30T06:14:45.481Z,27.50
2023-01-30T06:17:19.024Z,18.48
2023-01-30T06:19:46.313Z,15.35
2023-01-30T06:22:13.412Z,22.58
2023-01-30T06:24:46.805Z,23.92
2023-01-30T06:27:14.491Z,29.35
2023-01-30T06:29:47.939Z,31.90
2023-01-30T06:32:15.293Z,29.83
2023-01-30T06:34:42.379Z,28.02
2023-01-30T06:37:15.834Z,23.45
2023-01-30T06:39:42.990Z,30.70
2023-01-30T06:42:16.958Z,33.55
2023-01-30T06:44:44.202Z,21.50
2023-01-30T06:47:11.271Z,26.17
2023-01-30T06:49:45.014Z,24.58
2023-01-30T06:52:12.191Z,29.30
2023-01-30T06:54:39.285Z,23.92
2023-01-30T06:57:12.932Z,25.25
2023-01-30T06:59:40.240Z,27.83
2023-01-30T07:02:14.053Z,19.30
2023-01-30T07:04:41.652Z,29.30
2023-01-30T07:09:58.578Z,27.75
2023-01-30T07:12:33.771Z,21.20
2023-01-30T07:15:08.042Z,15.88
2023-01-30T07:17:35.249Z,28.67
2023-01-30T07:20:02.420Z,33.55
2023-01-30T07:22:50.900Z,22.58
2023-01-30T07:25:25.416Z,24.75
2023-01-30T07:28:06.919Z,29.17
2023-01-30T07:30:36.271Z,23.38
2023-01-30T07:33:10.974Z,19.80
2023-01-30T07:35:38.479Z,22.98
2023-01-30T07:38:06.129Z,17.23
2023-01-30T07:40:39.837Z,21.20
2023-01-30T07:43:08.519Z,23.90
2023-01-30T07:45:43.815Z,21.45
2023-01-30T07:48:14.772Z,21.98
2023-01-30T07:50:48.868Z,18.17
2023-01-30T07:53:17.507Z,17.42
2023-01-30T07:55:44.860Z,27.23
2023-01-30T07:58:20.830Z,21.75
2023-01-30T08:00:48.057Z,20.92
2023-01-30T08:03:23.004Z,35.58
2023-01-30T08:05:56.799Z,21.58
2023-01-30T08:08:36.836Z,26.42
2023-01-30T08:11:10.905Z,25.58
2023-01-30T08:13:38.144Z,28.00
2023-01-30T08:16:06.352Z,17.77
2023-01-30T08:18:40.879Z,16.90
2023-01-30T08:21:08.147Z,23.02
2023-01-30T08:23:41.884Z,16.48
2023-01-30T08:26:08.990Z,24.15
2023-01-30T08:28:36.154Z,16.17
2023-01-30T08:31:10.003Z,23.10
2023-01-30T08:33:37.211Z,19.90
2023-01-30T08:36:10.873Z,17.17
2023-01-30T08:38:38.048Z,20.75
2023-01-30T08:41:05.719Z,17.05
2023-01-30T08:43:39.852Z,20.02
2023-01-30T08:46:07.850Z,19.95
2023-01-30T08:48:49.661Z,18.73
2023-01-30T08:51:17.365Z,26.38
2023-01-30T08:53:50.933Z,22.10
2023-01-30T08:56:18.189Z,30.13
2023-01-30T08:58:46.636Z,21.90
2023-01-30T09:01:21.028Z,16.00
2023-01-30T09:03:48.494Z,20.27
2023-01-30T09:08:56.830Z,14.00
2023-01-30T09:11:30.895Z,22.88
2023-01-30T09:13:58.077Z,24.02
2023-01-30T09:16:25.245Z,19.65
2023-01-30T09:18:58.859Z,15.05
2023-01-30T09:21:26.070Z,14.80
2023-01-30T09:23:59.941Z,16.75
2023-01-30T09:26:27.198Z,22.65
2023-01-30T09:28:54.279Z,16.13
2023-01-30T09:31:27.882Z,17.55
2023-01-30T09:33:55.309Z,17.88
2023-01-30T09:36:28.893Z,16.63
2023-01-30T09:38:55.995Z,12.27
2023-01-30T09:41:23.188Z,16.10
2023-01-30T09:43:57.007Z,14.27
2023-01-30T09:46:30.362Z,17.23
2023-01-30T09:49:08.091Z,16.65
2023-01-30T09:51:41.136Z,11.25
2023-01-30T09:54:28.925Z,13.02
2023-01-30T09:56:58.508Z,18.53
2023-01-30T09:59:41.889Z,14.60
2023-01-30T10:02:27.729Z,14.73
2023-01-30T10:05:03.935Z,10.57
2023-01-30T10:07:37.700Z,16.17
2023-01-30T10:10:17.234Z,18.70
2023-01-30T10:12:59.839Z,20.27
2023-01-30T10:15:42.031Z,16.13
2023-01-30T10:18:15.683Z,15.32
2023-01-30T10:20:57.743Z,12.93
2023-01-30T10:23:44.566Z,12.05
2023-01-30T10:26:37.119Z,15.43
2023-01-30T10:29:08.193Z,14.13
2023-01-30T10:31:48.006Z,15.75
2023-01-30T10:34:21.792Z,14.00
2023-01-30T10:36:56.024Z,13.27
2023-01-30T10:39:43.449Z,13.50
2023-01-30T10:42:31.998Z,17.05
2023-01-30T10:45:07.017Z,13.82
2023-01-30T10:47:48.169Z,15.05
2023-01-30T10:50:16.080Z,13.57
2023-01-30T10:53:09.029Z,12.57
2023-01-30T10:55:38.604Z,10.23
2023-01-30T10:58:30.978Z,11.48
2023-01-30T11:01:17.383Z,8.65
2023-01-30T11:03:55.029Z,11.05
2023-01-30T11:06:31.882Z,13.73
2023-01-30T11:09:12.896Z,10.70
2023-01-30T11:11:50.569Z,10.50
2023-01-30T11:14:23.881Z,17.63
2023-01-30T11:16:52.069Z,11.15
2023-01-30T11:19:28.001Z,16.30
2023-01-30T11:21:56.533Z,12.98
2023-01-30T11:24:24.694Z,18.48
2023-01-30T11:26:59.924Z,14.75
2023-01-30T11:29:31.306Z,10.85
2023-01-30T11:32:09.088Z,9.13
2023-01-30T11:34:36.568Z,14.15
2023-01-30T11:37:28.901Z,9.45
2023-01-30T11:39:56.840Z,10.52
2023-01-30T11:42:32.942Z,10.82
2023-01-30T11:45:16.059Z,11.77
2023-01-30T11:48:03.777Z,11.20
2023-01-30T11:50:36.438Z,6.13
2023-01-30T11:53:20.899Z,10.45
2023-01-30T11:56:01.902Z,14.00
2023-01-30T11:58:38.905Z,7.63
2023-01-30T12:01:06.283Z,11.50
2023-01-30T12:03:40.910Z,10.25
2023-01-30T12:06:14.861Z,5.90
2023-01-30T12:08:58.916Z,4.65
2023-01-30T12:11:27.926Z,6.70
2023-01-30T12:14:04.909Z,3.40
2023-01-30T12:16:50.809Z,7.95
2023-01-30T12:19:38.896Z,9.23
2023-01-30T12:22:22.001Z,9.20
2023-01-30T12:24:58.887Z,6.53
2023-01-30T12:27:30.726Z,10.10
2023-01-30T12:30:07.921Z,7.32
2023-01-30T12:32:35.571Z,10.37
2023-01-30T12:38:01.997Z,5.88
2023-01-30T12:40:44.730Z,3.92
2023-01-30T12:43:16.167Z,7.13
2023-01-30T12:45:58.980Z,7.53
2023-01-30T12:48:48.184Z,6.45
2023-01-30T12:51:30.956Z,6.50
2023-01-30T12:54:20.290Z,6.07
2023-01-30T12:56:55.084Z,4.03
2023-01-30T12:59:22.323Z,4.20
2023-01-30T13:02:09.586Z,4.60
2023-01-30T13:05:01.942Z,4.45
2023-01-30T13:07:56.901Z,6.03
2023-01-30T13:10:55.852Z,8.25
2023-01-30T13:13:32.911Z,7.35
2023-01-30T13:16:13.854Z,5.55
2023-01-30T13:19:03.040Z,5.13
2023-01-30T13:21:47.654Z,4.93
2023-01-30T13:24:47.066Z,6.45
2023-01-30T13:29:41.954Z,2.75
2023-01-30T13:32:21.929Z,3.72
2023-01-30T13:34:49.505Z,6.53
2023-01-30T13:39:52.746Z,2.33
2023-01-30T13:42:35.096Z,3.38
2023-01-30T13:45:05.434Z,5.72
2023-01-30T13:47:42.010Z,4.60
2023-01-30T13:50:21.623Z,5.65
2023-01-30T13:53:01.958Z,6.30
2023-01-30T13:55:40.619Z,5.68
2023-01-30T13:58:23.962Z,6.32
2023-01-30T14:00:55.084Z,3.53
2023-01-30T14:03:55.155Z,4.47
2023-01-30T14:06:50.855Z,5.32
2023-01-30T14:09:27.250Z,3.63
2023-01-30T14:12:04.996Z,7.00
2023-01-30T14:14:33.707Z,6.82
2023-01-30T14:17:21.965Z,5.47
2023-01-30T14:19:59.704Z,3.33
2023-01-30T14:22:35.866Z,4.68
2023-01-30T14:25:21.903Z,2.83
2023-01-30T14:28:01.917Z,2.95
2023-01-30T14:30:32.231Z,4.10
2023-01-30T14:33:06.905Z,1.52
2023-01-30T14:35:34.470Z,5.78
2023-01-30T14:40:37.937Z,7.05
2023-01-30T14:43:14.928Z,2.22
2023-01-30T14:45:55.043Z,5.38
2023-01-30T14:48:28.260Z,4.82
2023-01-30T14:51:20.955Z,3.35
2023-01-30T14:54:06.898Z,5.03
2023-01-30T14:56:54.394Z,5.30
2023-01-30T14:59:36.873Z,3.42
2023-01-30T15:02:13.479Z,6.43
2023-01-30T15:05:02.124Z,9.32
2023-01-30T15:07:41.940Z,5.15
2023-01-30T15:10:37.958Z,4.13
2023-01-30T15:13:24.022Z,5.50
2023-01-30T15:16:16.876Z,6.07
2023-01-30T15:19:04.010Z,5.97
2023-01-30T15:21:55.857Z,6.32
2023-01-30T15:24:45.347Z,5.57
2023-01-30T15:27:18.866Z,6.63
2023-01-30T15:29:46.069Z,5.43
2023-01-30T15:32:26.969Z,5.68
2023-01-30T15:34:57.255Z,7.50
2023-01-30T15:37:44.171Z,6.28
2023-01-30T15:40:22.228Z,6.82
2023-01-30T15:43:00.974Z,5.22
2023-01-30T15:45:33.979Z,10.63
2023-01-30T15:48:18.113Z,7.47
2023-01-30T15:50:49.749Z,8.00
2023-01-30T15:53:17.416Z,6.25
2023-01-30T15:58:20.165Z,7.95
2023-01-30T16:00:55.139Z,8.65
2023-01-30T16:03:24.024Z,8.25
2023-01-30T16:06:05.437Z,5.60
2023-01-30T16:08:39.924Z,11.15
2023-01-30T16:11:14.218Z,5.93
2023-01-30T16:13:42.638Z,7.38
2023-01-30T16:16:21.072Z,10.98
2023-01-30T16:18:50.669Z,7.72
2023-01-30T16:21:19.306Z,7.40
2023-01-30T16:24:03.962Z,8.50
2023-01-30T16:26:32.481Z,14.20
2023-01-30T16:29:19.222Z,10.90
2023-01-30T16:31:47.571Z,10.82
2023-01-30T16:34:40.941Z,9.70
2023-01-30T16:37:30.923Z,10.00
2023-01-30T16:40:17.164Z,7.90
2023-01-30T16:43:10.892Z,7.07
2023-01-30T16:45:40.267Z,8.05
2023-01-30T16:48:19.916Z,11.25
2023-01-30T16:50:47.829Z,5.07
2023-01-30T16:53:22.880Z,13.95
2023-01-30T16:56:13.740Z,7.90
2023-01-30T16:58:47.881Z,5.47
2023-01-30T17:01:15.194Z,6.22
2023-01-30T17:03:49.919Z,4.55
2023-01-30T17:06:30.850Z,3.10
2023-01-30T17:09:13.906Z,3.60
2023-01-30T17:11:42.260Z,4.43
2023-01-30T17:14:39.895Z,3.40
2023-01-30T17:17:10.338Z,5.03
2023-01-30T17:19:44.016Z,6.60
2023-01-30T17:22:24.572Z,4.25
2023-01-30T17:24:59.054Z,5.68
2023-01-30T17:27:27.936Z,4.80
2023-01-30T17:29:55.207Z,5.53
2023-01-30T17:32:29.055Z,4.10
2023-01-30T17:34:56.372Z,2.88
2023-01-30T17:37:29.993Z,1.95
2023-01-30T17:39:57.276Z,3.85
2023-01-30T17:42:24.475Z,3.38
2023-01-30T17:44:57.987Z,2.92
2023-01-30T17:47:25.135Z,1.88
2023-01-30T17:49:59.101Z,5.93
2023-01-30T17:52:26.343Z,2.65
2023-01-30T17:54:53.428Z,4.47
2023-01-30T17:57:26.995Z,3.95
2023-01-30T17:59:55.217Z,5.57
2023-01-30T18:02:22.417Z,2.45
2023-01-30T18:04:56.048Z,3.50
2023-01-30T18:07:30.039Z,2.78
2023-01-30T18:10:04.120Z,1.95
2023-01-30T18:12:31.338Z,2.75
2023-01-30T18:14:58.679Z,6.53
2023-01-30T18:17:35.073Z,4.28
2023-01-30T18:20:03.712Z,2.05
2023-01-30T18:22:39.107Z,2.38
2023-01-30T18:25:06.467Z,6.10
2023-01-30T18:27:33.722Z,3.85
2023-01-30T18:30:07.050Z,4.18
2023-01-30T18:32:37.657Z,3.13
2023-01-30T18:35:05.140Z,3.50
2023-01-30T18:37:39.160Z,5.72
2023-01-30T18:40:06.550Z,6.38
2023-01-30T18:42:33.699Z,3.58
2023-01-30T18:45:07.076Z,5.32
2023-01-30T18:47:34.220Z,2.83
2023-01-30T18:50:08.213Z,4.93
2023-01-30T18:52:35.570Z,3.72
2023-01-30T18:55:02.708Z,6.30
2023-01-30T18:57:36.256Z,1.08
2023-01-30T19:00:03.501Z,2.95
2023-01-30T19:02:37.412Z,5.70
2023-01-30T19:05:04.630Z,2.35
2023-01-30T19:07:45.236Z,2.88
2023-01-30T19:10:17.111Z,6.93
2023-01-30T19:13:10.145Z,3.97
2023-01-30T19:15:37.395Z,4.88
2023-01-30T19:18:04.644Z,6.18
2023-01-30T19:20:38.084Z,5.93
2023-01-30T19:23:05.247Z,6.22
2023-01-30T19:25:39.084Z,6.10
2023-01-30T19:28:06.601Z,5.63
2023-01-30T19:33:06.938Z,2.75
2023-01-30T19:35:34.678Z,3.65
2023-01-30T19:38:07.994Z,5.88
2023-01-30T19:40:35.293Z,7.63
2023-01-30T19:43:10.354Z,5.32
2023-01-30T19:45:49.032Z,3.70
2023-01-30T19:48:16.128Z,2.25
2023-01-30T19:50:43.357Z,2.15
2023-01-30T19:53:17.030Z,5.68
2023-01-30T19:55:49.416Z,1.95
2023-01-30T19:58:23.002Z,5.97
2023-01-30T20:00:50.290Z,9.45
2023-01-30T20:03:24.251Z,6.95
2023-01-30T20:05:51.542Z,3.60
2023-01-30T20:08:32.944Z,3.70
2023-01-30T20:11:08.336Z,3.55
2023-01-30T20:13:46.138Z,3.15
2023-01-30T20:16:14.344Z,4.07
2023-01-30T20:18:41.765Z,2.05
2023-01-30T20:21:15.999Z,4.78
2023-01-30T20:23:46.833Z,5.30
2023-01-30T20:26:22.161Z,6.35
2023-01-30T20:28:49.426Z,7.43
2023-01-30T20:31:21.317Z,3.38
2023-01-30T20:33:55.097Z,5.53
2023-01-30T20:36:22.318Z,8.73
2023-01-30T20:38:50.057Z,3.38
2023-01-30T20:41:27.014Z,11.07
2023-01-30T20:43:57.375Z,9.57
2023-01-30T20:46:34.194Z,5.45
2023-01-30T20:49:01.522Z,6.45
2023-01-30T20:51:30.396Z,6.57
2023-01-30T20:54:05.444Z,6.25
2023-01-30T20:56:37.701Z,5.20
2023-01-30T20:59:13.002Z,4.68
2023-01-30T21:01:40.559Z,5.28
2023-01-30T21:06:45.745Z,6.38
2023-01-30T21:09:22.038Z,6.82
2023-01-30T21:11:56.355Z,4.10
2023-01-30T21:14:30.207Z,6.20
2023-01-30T21:16:57.491Z,9.75
2023-01-30T21:19:24.592Z,3.85
2023-01-30T21:22:01.029Z,7.10
2023-01-30T21:24:29.421Z,4.53
2023-01-30T21:27:04.053Z,12.48
2023-01-30T21:29:31.287Z,4.45
2023-01-30T21:32:05.105Z,4.00
2023-01-30T21:34:35.141Z,2.67
2023-01-30T21:37:28.194Z,5.70
2023-01-30T21:40:13.941Z,3.58
2023-01-30T21:43:06.214Z,6.18
2023-01-30T21:45:33.384Z,4.50
2023-01-30T21:48:00.498Z,2.92
2023-01-30T21:50:35.350Z,6.93
2023-01-30T21:53:02.558Z,10.70
2023-01-30T21:55:29.708Z,2.58
2023-01-30T21:58:04.053Z,11.85
2023-01-30T22:00:31.208Z,6.90
2023-01-30T22:03:05.205Z,10.68
2023-01-30T22:05:36.501Z,14.70
2023-01-30T22:08:24.177Z,5.93
2023-01-30T22:10:57.962Z,5.03
2023-01-30T22:13:32.297Z,6.95
2023-01-30T22:16:08.950Z,5.00
2023-01-30T22:18:43.178Z,6.95
2023-01-30T22:21:19.471Z,7.53
2023-01-30T22:23:54.875Z,4.47
2023-01-30T22:26:23.177Z,7.50
2023-01-30T22:29:01.184Z,5.88
2023-01-30T22:31:30.475Z,4.30
2023-01-30T22:33:57.690Z,10.25
2023-01-30T22:36:32.101Z,8.90
2023-01-30T22:38:59.452Z,8.98
2023-01-30T22:41:34.194Z,8.95
2023-01-30T22:44:02.089Z,8.18
2023-01-30T22:46:32.276Z,9.82
2023-01-30T22:49:07.206Z,6.72
2023-01-30T22:51:35.891Z,13.23
2023-01-30T22:54:04.827Z,9.80
2023-01-30T22:56:43.054Z,14.68
2023-01-30T22:59:10.815Z,10.20
2023-01-30T23:01:46.123Z,12.10
2023-01-30T23:04:17.588Z,12.65
2023-01-30T23:06:52.072Z,7.75
2023-01-30T23:09:26.084Z,10.38
2023-01-30T23:12:20.201Z,14.73
2023-01-30T23:14:47.427Z,6.75
2023-01-30T23:17:40.268Z,7.13
2023-01-30T23:20:07.928Z,11.77
2023-01-30T23:25:09.027Z,5.03
2023-01-30T23:27:36.704Z,6.28
2023-01-30T23:30:10.115Z,16.77
2023-01-30T23:32:38.082Z,18.13
2023-01-30T23:35:12.260Z,13.55
2023-01-30T23:37:58.539Z,5.80
2023-01-30T23:40:32.283Z,8.93
2023-01-30T23:42:59.427Z,10.65
2023-01-30T23:45:28.391Z,10.05
2023-01-30T23:48:02.121Z,11.02
2023-01-30T23:50:29.282Z,5.47
2023-01-30T23:52:56.360Z,5.07
2023-01-30T23:55:36.312Z,10.23
2023-01-30T23:58:03.492Z,9.50
